createdAt,value
2022-09-06T00:00:13.107Z,92.14
2022-09-06T00:02:40.898Z,92.00
2022-09-06T00:05:09.090Z,92.13
2022-09-06T00:07:36.299Z,95.92
2022-09-06T00:10:04.108Z,95.95
2022-09-06T00:12:30.896Z,95.62
2022-09-06T00:14:57.581Z,95.66
2022-09-06T00:17:24.316Z,96.91
2022-09-06T00:19:51.055Z,95.95
2022-09-06T00:22:17.957Z,96.09
2022-09-06T00:24:44.721Z,95.89
2022-09-06T00:27:11.752Z,95.81
2022-09-06T00:29:38.513Z,96.18
2022-09-06T00:32:05.337Z,96.56
2022-09-06T00:34:32.172Z,97.28
2022-09-06T00:36:58.807Z,96.75
2022-09-06T00:39:25.495Z,96.23
2022-09-06T00:41:52.818Z,97.11
2022-09-06T00:44:19.803Z,96.58
2022-09-06T00:46:49.684Z,96.21
2022-09-06T00:49:25.023Z,95.83
2022-09-06T00:52:01.918Z,96.30
2022-09-06T00:54:30.702Z,96.58
2022-09-06T00:56:58.991Z,96.40
2022-09-06T00:59:29.268Z,97.43
2022-09-06T01:01:56.193Z,97.68
2022-09-06T01:04:24.286Z,97.58
2022-09-06T01:07:09.462Z,98.04
2022-09-06T01:09:55.978Z,97.18
2022-09-06T01:12:44.527Z,97.58
2022-09-06T01:15:37.921Z,96.98
2022-09-06T01:18:14.492Z,97.61
2022-09-06T01:21:00.677Z,98.46
2022-09-06T01:23:55.260Z,97.27
2022-09-06T01:26:58.998Z,97.26
2022-09-06T01:29:52.514Z,97.80
2022-09-06T01:32:52.072Z,96.47
2022-09-06T01:35:34.158Z,97.16
2022-09-06T01:38:02.077Z,96.22
2022-09-06T01:40:28.960Z,96.59
2022-09-06T01:42:58.469Z,96.87
2022-09-06T01:45:48.087Z,96.40
2022-09-06T01:48:18.713Z,95.68
2022-09-06T01:50:52.668Z,95.54
2022-09-06T01:53:44.067Z,94.91
2022-09-06T01:56:26.250Z,94.46
2022-09-06T01:59:02.070Z,94.93
2022-09-06T02:01:36.967Z,94.03
2022-09-06T02:04:18.884Z,94.03
2022-09-06T02:06:54.968Z,93.43
2022-09-06T02:09:25.233Z,93.63
2022-09-06T02:11:56.479Z,93.12
2022-09-06T02:14:32.199Z,92.61
2022-09-06T02:17:01.228Z,92.28
2022-09-06T02:19:36.015Z,92.07
2022-09-06T02:22:06.615Z,92.51
2022-09-06T02:24:37.580Z,91.64
2022-09-06T02:27:04.847Z,92.01
2022-09-06T02:29:31.596Z,91.76
2022-09-06T02:32:08.854Z,90.98
2022-09-06T02:34:46.195Z,91.18
2022-09-06T02:37:14.081Z,90.70
2022-09-06T02:39:40.980Z,90.43
2022-09-06T02:42:10.711Z,89.36
2022-09-06T02:44:37.627Z,88.39
2022-09-06T02:47:04.528Z,89.47
2022-09-06T02:49:31.187Z,89.52
2022-09-06T02:51:58.280Z,89.51
2022-09-06T02:54:26.094Z,90.20
2022-09-06T02:56:52.881Z,90.37
2022-09-06T02:59:19.572Z,90.94
2022-09-06T03:01:46.231Z,91.81
2022-09-06T03:04:13.048Z,92.00
2022-09-06T03:06:39.950Z,93.28
2022-09-06T03:09:06.731Z,93.87
2022-09-06T03:11:33.842Z,93.53
2022-09-06T03:14:00.399Z,94.23
2022-09-06T03:16:27.153Z,94.95
2022-09-06T03:18:53.940Z,94.72
2022-09-06T03:21:20.539Z,94.98
2022-09-06T03:23:47.472Z,95.50
2022-09-06T03:26:14.131Z,94.89
2022-09-06T03:28:41.044Z,95.23
2022-09-06T03:31:07.848Z,95.12
2022-09-06T03:33:34.587Z,95.21
2022-09-06T03:36:01.865Z,95.74
2022-09-06T03:38:29.516Z,95.25
2022-09-06T03:40:56.793Z,95.17
2022-09-06T03:43:25.171Z,93.45
2022-09-06T03:45:54.885Z,93.44
2022-09-06T03:48:24.193Z,93.19
2022-09-06T03:50:54.583Z,91.83
2022-09-06T03:53:23.005Z,91.65
2022-09-06T03:55:51.920Z,92.48
2022-09-06T03:58:20.661Z,91.85
2022-09-06T04:00:47.702Z,90.94
2022-09-06T04:03:15.119Z,90.72
2022-09-06T04:05:46.629Z,89.61
2022-09-06T04:08:14.442Z,88.74
2022-09-06T04:10:41.112Z,88.37
2022-09-06T04:13:08.059Z,88.38
2022-09-06T04:15:37.276Z,88.86
2022-09-06T04:18:09.033Z,89.06
2022-09-06T04:20:36.006Z,89.94
2022-09-06T04:23:02.682Z,90.15
2022-09-06T04:25:29.300Z,91.25
2022-09-06T04:27:55.988Z,91.59
2022-09-06T04:30:22.848Z,91.77
2022-09-06T04:32:49.479Z,92.48
2022-09-06T04:35:16.373Z,91.94
2022-09-06T04:37:44.063Z,92.35
2022-09-06T04:40:11.202Z,92.47
2022-09-06T04:42:37.964Z,92.23
2022-09-06T04:45:06.048Z,92.51
2022-09-06T04:47:33.056Z,91.45
2022-09-06T04:49:59.656Z,90.99
2022-09-06T04:52:30.041Z,91.53
2022-09-06T04:54:57.268Z,91.20
2022-09-06T04:57:23.959Z,91.68
2022-09-06T04:59:50.592Z,90.57
2022-09-06T05:02:17.220Z,91.32
2022-09-06T05:04:44.024Z,90.93
2022-09-06T05:07:10.764Z,91.80
2022-09-06T05:09:37.793Z,92.60
2022-09-06T05:12:06.039Z,91.35
2022-09-06T05:14:32.745Z,92.34
2022-09-06T05:16:59.473Z,91.90
2022-09-06T05:19:26.117Z,92.15
2022-09-06T05:21:52.769Z,92.61
2022-09-06T05:24:19.532Z,92.17
2022-09-06T05:26:46.315Z,92.29
2022-09-06T05:29:13.141Z,92.81
2022-09-06T05:31:40.086Z,92.36
2022-09-06T05:34:06.729Z,93.16
2022-09-06T05:36:33.381Z,92.48
2022-09-06T05:39:00.512Z,91.62
2022-09-06T05:41:27.760Z,90.54
2022-09-06T05:43:54.698Z,87.46
2022-09-06T05:46:21.978Z,84.39
2022-09-06T05:48:53.436Z,82.70
2022-09-06T05:51:20.857Z,81.00
2022-09-06T05:53:49.863Z,79.89
2022-09-06T05:56:17.139Z,79.28
2022-09-06T05:58:43.917Z,77.83
2022-09-06T06:01:21.573Z,77.94
2022-09-06T06:03:55.876Z,78.31
2022-09-06T06:06:23.691Z,76.54
2022-09-06T06:08:50.635Z,74.92
2022-09-06T06:11:18.458Z,74.31
2022-09-06T06:13:45.698Z,73.77
2022-09-06T06:16:15.727Z,73.03
2022-09-06T06:18:42.845Z,72.17
2022-09-06T06:21:19.550Z,72.37
2022-09-06T06:23:47.754Z,70.97
2022-09-06T06:26:14.598Z,70.33
2022-09-06T06:28:42.338Z,69.70
2022-09-06T06:31:11.060Z,69.25
2022-09-06T06:33:38.851Z,67.41
2022-09-06T06:36:08.269Z,67.23
2022-09-06T06:38:37.585Z,66.05
2022-09-06T06:41:06.956Z,65.91
2022-09-06T06:43:36.506Z,65.75
2022-09-06T06:46:09.981Z,66.26
2022-09-06T06:48:41.928Z,67.01
2022-09-06T06:51:09.563Z,68.91
2022-09-06T06:53:36.619Z,69.52
2022-09-06T06:56:42.541Z,72.58
2022-09-06T06:59:10.382Z,72.85
2022-09-06T07:01:38.458Z,73.30
2022-09-06T07:04:06.070Z,73.26
2022-09-06T07:12:25.737Z,72.96
2022-09-06T07:14:53.806Z,73.99
2022-09-06T07:17:20.483Z,75.18
2022-09-06T07:22:33.748Z,74.43
2022-09-06T07:25:01.774Z,73.71
2022-09-06T07:30:15.851Z,75.16
2022-09-06T07:32:42.936Z,74.20
2022-09-06T07:35:09.785Z,73.45
2022-09-06T07:37:36.774Z,74.81
2022-09-06T07:40:04.836Z,75.10
2022-09-06T07:42:36.393Z,73.94
2022-09-06T07:45:04.861Z,75.15
2022-09-06T07:53:11.894Z,74.86
2022-09-06T07:55:42.625Z,74.09
2022-09-06T07:58:09.278Z,74.68
2022-09-06T08:00:42.545Z,75.36
2022-09-06T08:03:09.924Z,74.46
2022-09-06T08:11:10.099Z,74.56
2022-09-06T08:13:37.518Z,74.22
2022-09-06T08:16:07.287Z,73.37
2022-09-06T08:18:36.948Z,74.35
2022-09-06T08:21:13.113Z,73.59
2022-09-06T08:23:51.239Z,73.53
2022-09-06T08:26:20.990Z,73.62
2022-09-06T08:28:47.790Z,72.85
2022-09-06T08:31:17.229Z,72.67
2022-09-06T08:33:48.022Z,73.48
2022-09-06T08:36:19.289Z,72.62
2022-09-06T08:38:46.208Z,71.96
2022-09-06T08:41:17.106Z,71.99
2022-09-06T08:47:02.654Z,71.07
2022-09-06T08:49:55.258Z,70.95
2022-09-06T08:52:49.419Z,71.03
2022-09-06T08:55:24.431Z,70.61
2022-09-06T08:58:08.826Z,71.40
2022-09-06T09:00:38.621Z,70.24
2022-09-06T09:03:25.468Z,70.35
2022-09-06T09:05:53.852Z,70.82
2022-09-06T09:08:41.373Z,70.65
2022-09-06T09:11:13.900Z,71.02
2022-09-06T09:14:06.252Z,70.72
2022-09-06T09:16:34.226Z,72.36
2022-09-06T09:19:04.103Z,71.57
2022-09-06T09:21:36.636Z,71.14
2022-09-06T09:24:11.929Z,70.07
2022-09-06T09:26:59.445Z,68.69
2022-09-06T09:29:29.479Z,68.29
2022-09-06T09:34:34.203Z,68.33
2022-09-06T09:37:45.998Z,67.90
2022-09-06T09:40:18.068Z,66.45
2022-09-06T09:42:44.775Z,68.17
2022-09-06T09:45:20.308Z,67.22
2022-09-06T09:47:47.968Z,68.04
2022-09-06T09:50:35.410Z,65.66
2022-09-06T09:53:11.566Z,64.95
2022-09-06T09:55:39.223Z,64.42
2022-09-06T09:58:17.426Z,63.74
2022-09-06T10:00:44.327Z,63.28
2022-09-06T10:03:20.143Z,63.89
2022-09-06T10:06:03.366Z,62.93
2022-09-06T10:08:33.997Z,62.81
2022-09-06T10:11:01.055Z,62.58
2022-09-06T10:13:30.470Z,63.25
2022-09-06T10:16:03.410Z,64.13
2022-09-06T10:18:41.980Z,63.82
2022-09-06T10:21:19.084Z,65.45
2022-09-06T10:26:56.433Z,62.13
2022-09-06T10:29:29.326Z,64.01
2022-09-06T10:32:30.459Z,60.75
2022-09-06T10:35:14.900Z,61.56
2022-09-06T10:37:48.972Z,61.22
2022-09-06T10:40:33.526Z,59.70
2022-09-06T10:43:01.760Z,59.70
2022-09-06T10:45:29.525Z,61.01
2022-09-06T10:48:02.657Z,59.80
2022-09-06T10:50:46.149Z,59.53
2022-09-06T10:53:21.899Z,58.73
2022-09-06T10:56:00.889Z,56.62
2022-09-06T11:01:29.139Z,54.96
2022-09-06T11:04:04.347Z,54.08
2022-09-06T11:06:44.553Z,52.71
2022-09-06T11:09:38.675Z,52.52
2022-09-06T11:12:42.771Z,50.08
2022-09-06T11:15:13.453Z,53.77
2022-09-06T11:17:53.271Z,54.40
2022-09-06T11:20:35.060Z,51.90
2022-09-06T11:23:32.642Z,54.08
2022-09-06T11:26:05.185Z,53.66
2022-09-06T11:28:47.498Z,52.47
2022-09-06T11:34:34.885Z,52.65
2022-09-06T11:37:05.083Z,53.51
2022-09-06T11:42:41.851Z,51.13
2022-09-06T11:45:08.629Z,50.60
2022-09-06T11:47:45.610Z,51.38
2022-09-06T11:50:21.558Z,50.29
2022-09-06T11:53:00.576Z,50.84
2022-09-06T11:55:38.182Z,50.66
2022-09-06T11:58:19.240Z,51.14
2022-09-06T12:01:07.172Z,53.57
2022-09-06T12:06:31.811Z,50.31
2022-09-06T12:09:00.539Z,49.71
2022-09-06T12:11:42.692Z,50.11
2022-09-06T12:14:31.361Z,50.33
2022-09-06T12:16:58.116Z,47.44
2022-09-06T12:19:44.689Z,47.19
2022-09-06T12:22:26.755Z,47.00
2022-09-06T12:24:54.954Z,48.96
2022-09-06T12:27:23.230Z,48.89
2022-09-06T12:30:01.073Z,46.17
2022-09-06T12:32:37.225Z,46.70
2022-09-06T12:38:16.023Z,44.83
2022-09-06T12:40:49.528Z,46.52
2022-09-06T12:43:18.234Z,46.66
2022-09-06T12:45:47.016Z,46.59
2022-09-06T12:48:33.600Z,44.62
2022-09-06T12:51:08.220Z,44.46
2022-09-06T12:53:35.102Z,46.17
2022-09-06T12:56:12.662Z,44.39
2022-09-06T12:58:39.825Z,44.06
2022-09-06T13:01:15.700Z,46.41
2022-09-06T13:03:56.468Z,45.90
2022-09-06T13:06:27.393Z,45.79
2022-09-06T13:08:57.201Z,44.53
2022-09-06T13:11:35.516Z,43.28
2022-09-06T13:14:14.016Z,42.70
2022-09-06T13:16:47.806Z,40.39
2022-09-06T13:19:19.607Z,43.17
2022-09-06T13:21:46.976Z,42.06
2022-09-06T13:24:43.381Z,42.57
2022-09-06T13:27:24.762Z,41.27
2022-09-06T13:30:10.565Z,39.70
2022-09-06T13:32:47.576Z,37.40
2022-09-06T13:35:24.196Z,38.47
2022-09-06T13:37:51.039Z,38.42
2022-09-06T13:40:59.853Z,40.49
2022-09-06T13:43:28.156Z,40.65
2022-09-06T13:46:09.900Z,38.40
2022-09-06T13:48:36.897Z,32.23
2022-09-06T13:51:05.811Z,34.13
2022-09-06T13:53:33.248Z,35.52
2022-09-06T13:55:59.934Z,35.90
2022-09-06T13:58:28.326Z,37.46
2022-09-06T14:00:55.183Z,38.71
2022-09-06T14:03:29.192Z,36.83
2022-09-06T14:05:55.957Z,37.14
2022-09-06T14:08:23.176Z,36.69
2022-09-06T14:10:51.591Z,35.71
2022-09-06T14:13:19.319Z,32.61
2022-09-06T14:15:47.712Z,33.17
2022-09-06T14:18:15.469Z,33.50
2022-09-06T14:20:42.764Z,35.76
2022-09-06T14:23:09.721Z,34.89
2022-09-06T14:25:38.739Z,34.63
2022-09-06T14:28:05.751Z,35.95
2022-09-06T14:30:32.665Z,35.60
2022-09-06T14:32:59.495Z,35.07
2022-09-06T14:35:27.744Z,35.29
2022-09-06T14:37:54.375Z,35.08
2022-09-06T14:40:21.081Z,35.49
2022-09-06T14:42:50.529Z,35.56
2022-09-06T14:45:17.787Z,37.00
2022-09-06T14:47:44.561Z,35.97
2022-09-06T14:50:11.278Z,36.17
2022-09-06T14:52:38.129Z,36.64
2022-09-06T14:55:05.418Z,37.96
2022-09-06T14:57:32.241Z,39.01
2022-09-06T14:59:59.290Z,40.10
2022-09-06T15:02:29.072Z,39.73
2022-09-06T15:04:56.187Z,39.20
2022-09-06T15:07:22.888Z,40.11
2022-09-06T15:09:51.140Z,39.35
2022-09-06T15:12:18.227Z,40.59
2022-09-06T15:14:45.013Z,41.74
2022-09-06T15:17:11.952Z,41.31
2022-09-06T15:19:38.947Z,40.93
2022-09-06T15:22:07.266Z,41.45
2022-09-06T15:24:34.309Z,42.92
2022-09-06T15:27:02.243Z,42.49
2022-09-06T15:29:29.120Z,42.35
2022-09-06T15:31:56.219Z,43.30
2022-09-06T15:34:25.493Z,42.97
2022-09-06T15:36:53.513Z,44.82
2022-09-06T15:39:20.762Z,45.59
2022-09-06T15:41:50.056Z,46.07
2022-09-06T15:44:19.322Z,47.03
2022-09-06T15:47:00.899Z,47.40
2022-09-06T15:49:31.786Z,47.78
2022-09-06T15:52:01.059Z,46.92
2022-09-06T15:54:47.839Z,46.70
2022-09-06T15:57:16.614Z,46.11
2022-09-06T15:59:44.131Z,47.89
2022-09-06T16:02:13.128Z,46.39
2022-09-06T16:04:40.026Z,46.95
2022-09-06T16:07:07.345Z,47.30
2022-09-06T16:09:34.470Z,48.18
2022-09-06T16:12:01.150Z,48.96
2022-09-06T16:14:29.240Z,47.80
2022-09-06T16:16:57.518Z,48.39
2022-09-06T16:19:26.017Z,48.78
2022-09-06T16:21:52.949Z,48.26
2022-09-06T16:24:19.696Z,48.81
2022-09-06T16:26:46.982Z,49.21
2022-09-06T16:29:16.543Z,50.17
2022-09-06T16:31:43.474Z,50.42
2022-09-06T16:34:11.992Z,50.57
2022-09-06T16:36:39.215Z,50.56
2022-09-06T16:39:07.529Z,50.86
2022-09-06T16:41:40.647Z,50.56
2022-09-06T16:44:09.276Z,50.75
2022-09-06T16:46:40.260Z,50.04
2022-09-06T16:49:07.176Z,49.99
2022-09-06T16:51:33.995Z,50.77
2022-09-06T16:54:01.371Z,49.77
2022-09-06T16:56:33.570Z,50.58
2022-09-06T16:59:03.480Z,50.76
2022-09-06T17:01:32.438Z,50.33
2022-09-06T17:04:02.331Z,50.07
2022-09-06T17:06:30.206Z,50.76
2022-09-06T17:09:00.760Z,51.18
2022-09-06T17:11:28.539Z,51.44
2022-09-06T17:13:56.593Z,51.40
2022-09-06T17:16:42.176Z,51.52
2022-09-06T17:19:09.366Z,51.43
2022-09-06T17:21:36.245Z,51.52
2022-09-06T17:24:04.784Z,51.67
2022-09-06T17:26:34.210Z,51.81
2022-09-06T17:29:01.409Z,52.21
2022-09-06T17:31:28.782Z,54.48
2022-09-06T17:33:55.701Z,56.25
2022-09-06T17:36:29.884Z,57.63
2022-09-06T17:39:07.482Z,59.34
2022-09-06T17:41:43.325Z,59.53
2022-09-06T17:44:11.719Z,58.90
2022-09-06T17:46:47.602Z,60.05
2022-09-06T17:49:18.898Z,59.35
2022-09-06T17:51:47.535Z,59.56
2022-09-06T17:54:15.167Z,58.58
2022-09-06T17:56:41.899Z,51.34
2022-09-06T17:59:11.147Z,50.81
2022-09-06T18:01:38.715Z,50.98
2022-09-06T18:04:06.346Z,51.65
2022-09-06T18:06:34.365Z,52.56
2022-09-06T18:09:14.780Z,53.14
2022-09-06T18:11:42.080Z,53.53
2022-09-06T18:14:11.725Z,53.61
2022-09-06T18:16:40.607Z,53.27
2022-09-06T18:19:08.634Z,54.10
2022-09-06T18:21:38.057Z,55.45
2022-09-06T18:24:05.504Z,56.70
2022-09-06T18:26:33.314Z,57.92
2022-09-06T18:29:02.811Z,58.75
2022-09-06T18:31:29.635Z,60.18
2022-09-06T18:33:59.157Z,60.53
2022-09-06T18:36:31.132Z,56.12
2022-09-06T18:39:02.622Z,55.49
2022-09-06T18:41:55.698Z,54.25
2022-09-06T18:44:22.600Z,56.84
2022-09-06T18:46:49.993Z,59.03
2022-09-06T18:49:17.632Z,61.55
2022-09-06T18:51:45.737Z,60.85
2022-09-06T18:54:12.458Z,58.64
2022-09-06T18:56:39.117Z,58.30
2022-09-06T18:59:06.912Z,58.21
2022-09-06T19:01:35.327Z,57.50
2022-09-06T19:04:05.220Z,57.33
2022-09-06T19:06:33.415Z,56.38
2022-09-06T19:09:03.229Z,57.16
2022-09-06T19:11:30.256Z,56.87
2022-09-06T19:13:57.752Z,56.85
2022-09-06T19:16:26.410Z,58.91
2022-09-06T19:18:56.081Z,54.82
2022-09-06T19:21:25.720Z,54.24
2022-09-06T19:24:01.493Z,54.14
2022-09-06T19:26:31.657Z,53.56
2022-09-06T19:29:00.966Z,52.46
2022-09-06T19:31:33.908Z,52.59
2022-09-06T19:34:00.905Z,53.67
2022-09-06T19:36:28.949Z,53.40
2022-09-06T19:39:04.132Z,53.40
2022-09-06T19:41:33.301Z,54.72
2022-09-06T19:44:00.577Z,54.95
2022-09-06T19:46:27.953Z,55.65
2022-09-06T19:48:58.430Z,56.32
2022-09-06T19:51:25.140Z,55.91
2022-09-06T19:54:00.173Z,56.10
2022-09-06T19:56:31.968Z,56.43
2022-09-06T19:59:01.028Z,56.79
2022-09-06T20:01:31.185Z,56.81
2022-09-06T20:03:58.809Z,56.71
2022-09-06T20:06:26.870Z,56.73
2022-09-06T20:08:55.552Z,56.42
2022-09-06T20:11:24.905Z,56.80
2022-09-06T20:13:52.188Z,56.63
2022-09-06T20:16:21.221Z,56.66
2022-09-06T20:18:48.621Z,57.01
2022-09-06T20:21:17.839Z,57.51
2022-09-06T20:23:51.184Z,57.55
2022-09-06T20:26:18.597Z,57.83
2022-09-06T20:28:46.097Z,58.51
2022-09-06T20:31:17.666Z,58.95
2022-09-06T20:33:49.502Z,59.05
2022-09-06T20:36:17.656Z,59.51
2022-09-06T20:38:46.265Z,60.03
2022-09-06T20:41:14.129Z,60.29
2022-09-06T20:43:41.805Z,60.34
2022-09-06T20:46:13.155Z,60.60
2022-09-06T20:48:44.438Z,60.99
2022-09-06T20:51:15.917Z,61.11
2022-09-06T20:53:43.089Z,61.41
2022-09-06T20:56:15.457Z,61.77
2022-09-06T20:58:42.796Z,61.71
2022-09-06T21:01:19.663Z,63.00
2022-09-06T21:03:46.503Z,64.20
2022-09-06T21:06:13.452Z,65.72
2022-09-06T21:08:42.869Z,65.69
2022-09-06T21:11:10.818Z,66.47
2022-09-06T21:13:38.110Z,67.82
2022-09-06T21:16:06.150Z,68.66
2022-09-06T21:18:34.038Z,69.92
2022-09-06T21:21:08.364Z,71.41
2022-09-06T21:23:37.194Z,72.00
2022-09-06T21:26:07.970Z,72.68
2022-09-06T21:28:36.759Z,73.28
2022-09-06T21:31:23.313Z,74.64
2022-09-06T21:33:59.106Z,76.04
2022-09-06T21:36:31.193Z,76.85
2022-09-06T21:39:00.110Z,77.15
2022-09-06T21:41:27.499Z,83.77
2022-09-06T21:43:56.298Z,87.04
2022-09-06T21:46:30.301Z,89.72
2022-09-06T21:49:01.738Z,92.59
2022-09-06T21:51:28.603Z,94.30
2022-09-06T21:53:57.129Z,95.72
2022-09-06T21:56:25.017Z,95.54
2022-09-06T21:58:56.935Z,96.82
2022-09-06T22:01:25.068Z,95.65
2022-09-06T22:03:52.259Z,97.64
2022-09-06T22:06:22.565Z,97.59
2022-09-06T22:08:49.811Z,98.82
2022-09-06T22:11:19.344Z,97.90
2022-09-06T22:13:48.305Z,98.60
2022-09-06T22:16:18.457Z,98.25
2022-09-06T22:18:45.745Z,99.17
2022-09-06T22:21:20.339Z,98.22
2022-09-06T22:23:51.157Z,98.07
2022-09-06T22:26:18.679Z,97.29
2022-09-06T22:28:46.365Z,98.47
2022-09-06T22:31:13.354Z,96.37
2022-09-06T22:33:40.079Z,96.64
2022-09-06T22:36:07.571Z,97.14
2022-09-06T22:38:34.945Z,96.24
2022-09-06T22:41:01.703Z,95.22
2022-09-06T22:43:28.438Z,95.32
2022-09-06T22:46:02.277Z,95.11
2022-09-06T22:48:29.082Z,96.12
2022-09-06T22:50:56.041Z,94.69
2022-09-06T22:53:23.037Z,94.87
2022-09-06T22:55:49.726Z,95.22
2022-09-06T22:58:16.544Z,97.33
2022-09-06T23:00:43.408Z,99.17
2022-09-06T23:03:10.467Z,99.92
2022-09-06T23:05:37.095Z,100.00
2022-09-06T23:08:04.416Z,99.89
2022-09-06T23:10:32.216Z,98.85
2022-09-06T23:12:59.299Z,99.38
2022-09-06T23:15:26.420Z,99.30
2022-09-06T23:17:53.428Z,99.34
2022-09-06T23:20:20.312Z,100.00
2022-09-06T23:22:48.239Z,99.52
2022-09-06T23:25:14.998Z,99.80
2022-09-06T23:27:41.735Z,100.00
2022-09-06T23:30:09.170Z,100.00
2022-09-06T23:32:35.818Z,100.00
2022-09-06T23:35:02.618Z,100.00
2022-09-06T23:37:29.432Z,100.00
2022-09-06T23:39:56.181Z,100.00
2022-09-06T23:42:23.143Z,100.00
2022-09-06T23:44:54.400Z,99.75
2022-09-06T23:47:21.086Z,99.59
2022-09-06T23:49:47.769Z,99.81
2022-09-06T23:52:14.459Z,100.00
2022-09-06T23:54:41.203Z,100.00
2022-09-06T23:57:07.966Z,100.00
2022-09-06T23:59:35.012Z,100.00
